createdAt,value
2022-09-01T00:01:40.167Z,6.00
2022-09-01T00:04:16.273Z,5.60
2022-09-01T00:06:49.905Z,6.33
2022-09-01T00:09:24.613Z,5.80
2022-09-01T00:11:57.702Z,6.03
2022-09-01T00:14:37.413Z,6.35
2022-09-01T00:17:12.112Z,5.80
2022-09-01T00:19:45.057Z,5.87
2022-09-01T00:22:17.969Z,5.75
2022-09-01T00:24:51.830Z,5.57
2022-09-01T00:27:27.876Z,5.67
2022-09-01T00:30:00.363Z,5.70
2022-09-01T00:32:33.438Z,5.70
2022-09-01T00:35:09.115Z,5.78
2022-09-01T00:37:42.048Z,6.55
2022-09-01T00:40:17.825Z,5.40
2022-09-01T00:42:50.913Z,5.10
2022-09-01T00:45:24.149Z,5.80
2022-09-01T00:47:57.284Z,5.37
2022-09-01T00:50:30.839Z,5.15
2022-09-01T00:53:03.905Z,5.35
2022-09-01T00:55:39.679Z,4.55
2022-09-01T00:58:19.921Z,5.17
2022-09-01T01:00:49.904Z,5.50
2022-09-01T01:03:24.323Z,5.35
2022-09-01T01:05:59.613Z,6.08
2022-09-01T01:08:35.639Z,6.12
2022-09-01T01:11:14.448Z,5.85
2022-09-01T01:13:59.358Z,5.47
2022-09-01T01:16:32.966Z,6.47
2022-09-01T01:19:06.650Z,5.65
2022-09-01T01:22:01.550Z,5.00
2022-09-01T01:24:36.477Z,5.28
2022-09-01T01:27:09.633Z,6.75
2022-09-01T01:29:43.243Z,5.22
2022-09-01T01:32:16.673Z,4.85
2022-09-01T01:34:50.807Z,5.08
2022-09-01T01:39:59.240Z,5.53
2022-09-01T01:42:35.024Z,5.55
2022-09-01T01:45:10.315Z,5.00
2022-09-01T01:47:50.373Z,5.15
2022-09-01T01:50:33.158Z,4.65
2022-09-01T01:53:10.960Z,5.28
2022-09-01T01:55:44.793Z,5.35
2022-09-01T01:58:21.022Z,4.80
2022-09-01T02:00:56.310Z,5.17
2022-09-01T02:03:34.772Z,5.35
2022-09-01T02:06:12.296Z,4.80
2022-09-01T02:08:46.730Z,5.00
2022-09-01T02:11:20.095Z,5.28
2022-09-01T02:13:55.190Z,4.77
2022-09-01T02:16:32.092Z,4.90
2022-09-01T02:19:09.180Z,4.95
2022-09-01T02:21:44.993Z,5.42
2022-09-01T02:24:18.638Z,5.05
2022-09-01T02:26:51.676Z,5.45
2022-09-01T02:29:27.206Z,4.30
2022-09-01T02:32:00.912Z,4.70
2022-09-01T02:34:37.204Z,4.83
2022-09-01T02:37:11.109Z,5.35
2022-09-01T02:39:44.505Z,5.28
2022-09-01T02:42:20.895Z,5.12
2022-09-01T02:44:58.956Z,4.80
2022-09-01T02:47:31.943Z,6.10
2022-09-01T02:50:05.218Z,5.00
2022-09-01T02:52:40.270Z,4.33
2022-09-01T02:55:14.155Z,4.53
2022-09-01T02:57:49.399Z,4.70
2022-09-01T03:00:23.930Z,4.42
2022-09-01T03:03:02.285Z,4.83
2022-09-01T03:05:39.389Z,5.00
2022-09-01T03:08:15.588Z,4.85
2022-09-01T03:10:48.824Z,4.87
2022-09-01T03:13:25.519Z,5.20
2022-09-01T03:15:58.657Z,4.72
2022-09-01T03:18:32.276Z,5.00
2022-09-01T03:21:06.767Z,5.12
2022-09-01T03:23:39.738Z,6.75
2022-09-01T03:26:14.037Z,6.05
2022-09-01T03:28:49.795Z,5.25
2022-09-01T03:33:57.359Z,4.97
2022-09-01T03:36:33.681Z,4.58
2022-09-01T03:39:09.908Z,6.20
2022-09-01T03:41:43.971Z,5.17
2022-09-01T03:44:17.879Z,5.67
2022-09-01T03:46:52.126Z,6.15
2022-09-01T03:52:00.610Z,5.87
2022-09-01T03:57:08.202Z,5.15
2022-09-01T03:59:43.725Z,7.65
2022-09-01T04:02:16.783Z,5.53
2022-09-01T04:04:49.974Z,6.40
2022-09-01T04:07:24.481Z,5.47
2022-09-01T04:09:57.825Z,5.28
2022-09-01T04:12:31.443Z,5.08
2022-09-01T04:15:05.004Z,4.60
2022-09-01T04:17:55.776Z,5.25
2022-09-01T04:20:29.503Z,5.20
2022-09-01T04:23:04.223Z,4.70
2022-09-01T04:25:41.900Z,5.00
2022-09-01T04:28:17.210Z,4.42
2022-09-01T04:30:58.820Z,4.50
2022-09-01T04:33:33.632Z,4.55
2022-09-01T04:36:11.127Z,4.47
2022-09-01T04:38:44.534Z,4.85
2022-09-01T04:41:18.035Z,4.60
2022-09-01T04:43:52.379Z,4.25
2022-09-01T04:46:33.265Z,4.80
2022-09-01T04:49:13.323Z,4.35
2022-09-01T04:51:53.301Z,4.45
2022-09-01T04:54:25.210Z,4.30
2022-09-01T04:56:58.495Z,4.80
2022-09-01T04:59:33.580Z,4.75
2022-09-01T05:02:08.726Z,5.50
2022-09-01T05:04:43.866Z,4.97
2022-09-01T05:07:19.308Z,5.60
2022-09-01T05:09:57.985Z,6.75
2022-09-01T05:12:47.092Z,6.97
2022-09-01T05:15:21.088Z,6.03
2022-09-01T05:17:55.779Z,6.12
2022-09-01T05:20:30.407Z,5.25
2022-09-01T05:23:03.499Z,5.75
2022-09-01T05:25:44.425Z,4.85
2022-09-01T05:28:20.496Z,5.08
2022-09-01T05:30:56.619Z,4.97
2022-09-01T05:33:30.037Z,4.80
2022-09-01T05:36:04.921Z,4.37
2022-09-01T05:38:40.796Z,4.03
2022-09-01T05:41:16.812Z,3.92
2022-09-01T05:43:57.765Z,4.42
2022-09-01T05:46:30.246Z,3.52
2022-09-01T05:49:06.845Z,4.25
2022-09-01T05:51:46.331Z,4.30
2022-09-01T05:54:24.496Z,4.00
2022-09-01T05:57:23.404Z,4.35
2022-09-01T05:59:39.720Z,3.98
2022-09-01T06:02:18.242Z,3.83
2022-09-01T06:04:53.413Z,4.20
2022-09-01T06:07:28.845Z,3.80
2022-09-01T06:10:03.040Z,3.70
2022-09-01T06:12:37.296Z,3.40
2022-09-01T06:15:12.566Z,3.65
2022-09-01T06:17:49.627Z,4.40
2022-09-01T06:20:23.277Z,4.12
2022-09-01T06:22:56.293Z,4.08
2022-09-01T06:25:30.939Z,4.72
2022-09-01T06:28:04.930Z,4.08
2022-09-01T06:30:39.199Z,3.72
2022-09-01T06:33:14.897Z,4.33
2022-09-01T06:35:49.442Z,4.10
2022-09-01T06:38:25.512Z,3.70
2022-09-01T06:41:04.641Z,4.22
2022-09-01T06:43:39.519Z,4.00
2022-09-01T06:46:13.523Z,3.90
2022-09-01T06:48:49.947Z,4.10
2022-09-01T06:51:25.381Z,6.15
2022-09-01T06:54:01.054Z,4.22
2022-09-01T06:56:38.946Z,4.50
2022-09-01T06:59:13.816Z,4.70
2022-09-01T07:01:49.890Z,5.08
2022-09-01T07:07:53.375Z,5.28
2022-09-01T07:09:47.722Z,4.92
2022-09-01T07:17:34.644Z,5.15
2022-09-01T07:20:26.773Z,4.80
2022-09-01T07:25:21.676Z,5.35
2022-09-01T07:28:00.657Z,4.97
2022-09-01T07:30:35.645Z,5.35
2022-09-01T07:42:59.008Z,4.30
2022-09-01T07:43:52.582Z,5.37
2022-09-01T07:46:37.066Z,5.47
2022-09-01T07:51:42.215Z,5.58
2022-09-01T07:54:16.307Z,5.53
2022-09-01T07:56:50.637Z,6.30
2022-09-01T07:59:24.087Z,5.65
2022-09-01T08:02:03.498Z,5.28
2022-09-01T08:04:39.088Z,5.85
2022-09-01T08:07:16.261Z,6.50
2022-09-01T08:09:48.349Z,5.92
2022-09-01T08:12:28.818Z,6.03
2022-09-01T08:15:38.090Z,7.17
2022-09-01T08:17:50.258Z,7.03
2022-09-01T08:20:14.069Z,7.37
2022-09-01T08:22:48.228Z,6.67
2022-09-01T08:25:25.020Z,7.70
2022-09-01T08:28:00.252Z,7.25
2022-09-01T08:30:34.673Z,7.72
2022-09-01T08:33:10.531Z,8.58
2022-09-01T08:35:50.002Z,7.60
2022-09-01T08:38:24.269Z,8.40
2022-09-01T08:40:59.515Z,8.30
2022-09-01T08:44:05.470Z,9.40
2022-09-01T08:46:43.810Z,11.18
2022-09-01T08:49:26.139Z,11.50
2022-09-01T08:52:32.846Z,12.60
2022-09-01T08:55:30.296Z,11.63
2022-09-01T08:58:05.479Z,10.82
2022-09-01T09:00:59.987Z,11.80
2022-09-01T09:03:49.668Z,11.93
2022-09-01T09:06:33.351Z,13.28
2022-09-01T09:09:11.740Z,15.58
2022-09-01T09:12:10.384Z,15.32
2022-09-01T09:15:01.045Z,15.38
2022-09-01T09:17:39.918Z,14.45
2022-09-01T09:20:12.855Z,14.28
2022-09-01T09:22:47.690Z,13.48
2022-09-01T09:25:21.070Z,11.45
2022-09-01T09:28:01.531Z,11.35
2022-09-01T09:30:32.783Z,9.38
2022-09-01T09:33:44.326Z,11.15
2022-09-01T09:35:48.135Z,10.85
2022-09-01T09:40:25.031Z,10.25
2022-09-01T09:41:26.821Z,10.40
2022-09-01T09:44:06.340Z,8.83
2022-09-01T09:46:44.436Z,9.80
2022-09-01T09:49:36.520Z,10.10
2022-09-01T09:52:12.326Z,10.30
2022-09-01T09:55:07.598Z,10.08
2022-09-01T09:57:42.860Z,10.75
2022-09-01T10:00:26.369Z,11.97
2022-09-01T10:03:04.610Z,10.82
2022-09-01T10:05:45.644Z,10.08
2022-09-01T10:08:41.691Z,11.08
2022-09-01T10:11:40.888Z,12.50
2022-09-01T10:14:47.959Z,11.28
2022-09-01T10:17:06.474Z,11.88
2022-09-01T10:19:42.370Z,12.00
2022-09-01T10:22:15.517Z,11.03
2022-09-01T10:24:50.548Z,11.53
2022-09-01T10:27:27.096Z,10.13
2022-09-01T10:30:20.217Z,8.98
2022-09-01T10:32:58.136Z,10.45
2022-09-01T10:35:39.686Z,9.98
2022-09-01T10:38:20.208Z,9.45
2022-09-01T10:41:09.234Z,9.33
2022-09-01T10:43:49.157Z,9.33
2022-09-01T10:46:49.377Z,9.55
2022-09-01T10:52:08.570Z,10.00
2022-09-01T10:54:55.841Z,10.40
2022-09-01T10:57:49.858Z,8.40
2022-09-01T11:00:35.423Z,9.85
2022-09-01T11:03:40.944Z,10.00
2022-09-01T11:06:13.205Z,10.40
2022-09-01T11:08:50.993Z,10.10
2022-09-01T11:11:46.400Z,11.22
2022-09-01T11:14:28.077Z,9.63
2022-09-01T11:17:25.576Z,10.48
2022-09-01T11:20:10.185Z,10.28
2022-09-01T11:22:46.187Z,9.55
2022-09-01T11:25:44.513Z,9.78
2022-09-01T11:28:32.988Z,9.95
2022-09-01T11:31:14.878Z,11.03
2022-09-01T11:34:17.939Z,9.43
2022-09-01T11:37:01.631Z,9.73
2022-09-01T11:39:39.494Z,9.90
2022-09-01T11:42:28.890Z,9.75
2022-09-01T11:45:21.534Z,9.48
2022-09-01T11:48:09.276Z,9.45
2022-09-01T11:50:43.953Z,9.25
2022-09-01T11:53:23.450Z,8.78
2022-09-01T11:55:59.010Z,8.73
2022-09-01T11:58:38.988Z,8.98
2022-09-01T12:01:34.325Z,8.40
2022-09-01T12:04:27.898Z,8.75
2022-09-01T12:07:05.682Z,9.20
2022-09-01T12:09:48.314Z,8.75
2022-09-01T12:12:37.017Z,10.80
2022-09-01T12:15:26.236Z,9.18
2022-09-01T12:18:22.795Z,8.38
2022-09-01T12:21:00.173Z,9.20
2022-09-01T12:23:37.737Z,9.45
2022-09-01T12:26:17.297Z,9.20
2022-09-01T12:28:51.190Z,8.88
2022-09-01T12:31:27.317Z,8.98
2022-09-01T12:34:01.904Z,8.40
2022-09-01T12:36:39.269Z,7.75
2022-09-01T12:39:25.000Z,8.25
2022-09-01T12:42:25.500Z,8.00
2022-09-01T12:45:04.864Z,7.47
2022-09-01T12:47:44.101Z,7.50
2022-09-01T12:50:31.602Z,6.60
2022-09-01T12:53:08.420Z,6.55
2022-09-01T12:55:49.753Z,7.08
2022-09-01T12:58:23.385Z,6.30
2022-09-01T13:01:16.087Z,6.35
2022-09-01T13:03:42.780Z,5.10
2022-09-01T13:08:50.082Z,5.67
2022-09-01T13:11:23.218Z,4.75
2022-09-01T13:13:56.154Z,4.93
2022-09-01T13:16:29.166Z,4.92
2022-09-01T13:19:26.494Z,5.08
2022-09-01T13:24:10.975Z,5.00
2022-09-01T13:27:20.354Z,4.80
2022-09-01T13:29:20.923Z,4.53
2022-09-01T13:34:31.075Z,7.78
2022-09-01T13:37:04.359Z,9.00
2022-09-01T13:39:37.818Z,5.05
2022-09-01T13:42:11.075Z,4.45
2022-09-01T13:44:46.301Z,5.03
2022-09-01T13:48:15.295Z,6.85
2022-09-01T13:50:12.000Z,7.08
2022-09-01T13:52:30.470Z,17.65
2022-09-01T13:55:03.558Z,6.60
2022-09-01T13:57:37.227Z,5.97
2022-09-01T14:00:20.625Z,5.40
2022-09-01T14:02:56.724Z,5.30
2022-09-01T14:05:34.776Z,4.83
2022-09-01T14:08:09.763Z,8.55
2022-09-01T14:10:47.346Z,9.53
2022-09-01T14:13:25.246Z,5.35
2022-09-01T14:16:00.147Z,5.58
2022-09-01T14:18:37.004Z,4.72
2022-09-01T14:21:15.889Z,4.33
2022-09-01T14:23:49.174Z,4.15
2022-09-01T14:26:22.799Z,5.78
2022-09-01T14:28:58.283Z,15.38
2022-09-01T14:31:32.501Z,6.00
2022-09-01T14:34:07.244Z,6.15
2022-09-01T14:36:59.200Z,4.12
2022-09-01T14:39:32.782Z,4.20
2022-09-01T14:42:07.506Z,3.67
2022-09-01T14:44:41.279Z,4.12
2022-09-01T14:47:19.825Z,3.75
2022-09-01T14:49:49.601Z,3.40
2022-09-01T14:52:23.002Z,4.17
2022-09-01T14:54:55.982Z,7.30
2022-09-01T14:57:31.003Z,4.35
2022-09-01T15:00:04.339Z,7.25
2022-09-01T15:02:39.560Z,5.15
2022-09-01T15:05:14.102Z,4.17
2022-09-01T15:07:47.316Z,4.00
2022-09-01T15:10:25.067Z,5.33
2022-09-01T15:13:02.001Z,4.40
2022-09-01T15:15:35.951Z,4.72
2022-09-01T15:20:47.568Z,4.92
2022-09-01T15:23:23.970Z,3.33
2022-09-01T15:25:58.210Z,3.92
2022-09-01T15:28:31.414Z,4.40
2022-09-01T15:31:04.405Z,4.13
2022-09-01T15:33:38.444Z,3.80
2022-09-01T15:36:16.787Z,3.85
2022-09-01T15:38:50.606Z,3.85
2022-09-01T15:41:28.423Z,3.87
2022-09-01T15:44:02.995Z,5.97
2022-09-01T15:46:39.268Z,8.68
2022-09-01T15:49:13.670Z,6.53
2022-09-01T15:54:30.709Z,7.53
2022-09-01T15:57:03.198Z,6.30
2022-09-01T15:59:38.819Z,4.95
2022-09-01T16:02:12.570Z,5.20
2022-09-01T16:04:46.211Z,10.53
2022-09-01T16:07:19.166Z,7.12
2022-09-01T16:09:53.734Z,6.00
2022-09-01T16:12:27.519Z,5.45
2022-09-01T16:15:00.327Z,5.15
2022-09-01T16:18:01.454Z,4.15
2022-09-01T16:21:09.282Z,5.08
2022-09-01T16:23:48.685Z,8.13
2022-09-01T16:26:23.998Z,5.60
2022-09-01T16:29:00.123Z,4.47
2022-09-01T16:31:35.298Z,4.70
2022-09-01T16:34:18.509Z,4.60
2022-09-01T16:37:08.059Z,3.80
2022-09-01T16:39:54.103Z,5.10
2022-09-01T16:42:45.000Z,4.40
2022-09-01T16:45:43.048Z,4.50
2022-09-01T16:48:38.600Z,4.83
2022-09-01T16:51:34.295Z,5.20
2022-09-01T16:54:16.113Z,6.15
2022-09-01T16:57:10.708Z,23.18
2022-09-01T17:00:02.124Z,6.60
2022-09-01T17:03:05.477Z,5.65
2022-09-01T17:05:43.273Z,6.03
2022-09-01T17:08:28.527Z,6.55
2022-09-01T17:11:23.767Z,5.80
2022-09-01T17:13:58.400Z,9.05
2022-09-01T17:16:38.854Z,4.83
2022-09-01T17:19:21.155Z,6.25
2022-09-01T17:22:06.614Z,5.28
2022-09-01T17:24:45.158Z,5.03
2022-09-01T17:27:32.348Z,5.87
2022-09-01T17:30:07.461Z,5.30
2022-09-01T17:33:01.647Z,4.47
2022-09-01T17:35:53.916Z,5.40
2022-09-01T17:38:40.383Z,5.75
2022-09-01T17:41:35.543Z,5.15
2022-09-01T17:44:22.191Z,5.12
2022-09-01T17:47:23.433Z,4.55
2022-09-01T17:50:03.453Z,4.70
2022-09-01T17:53:10.379Z,4.25
2022-09-01T17:55:53.800Z,4.35
2022-09-01T17:58:57.358Z,4.40
2022-09-01T18:01:46.668Z,3.72
2022-09-01T18:04:49.694Z,4.15
2022-09-01T18:08:07.495Z,4.40
2022-09-01T18:10:58.138Z,3.92
2022-09-01T18:13:52.362Z,3.90
2022-09-01T18:16:19.855Z,4.05
2022-09-01T18:18:54.652Z,3.75
2022-09-01T18:21:31.937Z,3.47
2022-09-01T18:24:32.185Z,3.80
2022-09-01T18:27:07.591Z,3.95
2022-09-01T18:29:41.255Z,3.37
2022-09-01T18:32:39.522Z,3.85
2022-09-01T18:35:23.226Z,4.08
2022-09-01T18:38:12.392Z,3.42
2022-09-01T18:41:06.551Z,3.17
2022-09-01T18:43:44.924Z,3.52
2022-09-01T18:47:11.236Z,2.90
2022-09-01T18:50:12.255Z,3.30
2022-09-01T18:53:18.003Z,2.90
2022-09-01T18:56:14.113Z,2.87
2022-09-01T18:59:25.771Z,3.40
2022-09-01T19:02:17.420Z,2.83
2022-09-01T19:04:54.193Z,2.58
2022-09-01T19:07:52.776Z,2.20
2022-09-01T19:10:49.317Z,2.60
2022-09-01T19:13:53.866Z,2.65
2022-09-01T19:16:58.763Z,2.40
2022-09-01T19:20:14.273Z,2.12
2022-09-01T19:23:13.935Z,2.08
2022-09-01T19:25:48.747Z,2.30
2022-09-01T19:28:44.126Z,2.08
2022-09-01T19:31:30.636Z,2.17
2022-09-01T19:34:08.433Z,2.15
2022-09-01T19:37:02.314Z,1.98
2022-09-01T19:39:52.113Z,2.15
2022-09-01T19:42:41.523Z,2.05
2022-09-01T19:45:19.271Z,2.10
2022-09-01T19:48:15.883Z,1.85
2022-09-01T19:51:05.761Z,2.00
2022-09-01T19:54:01.882Z,1.87
2022-09-01T19:57:03.601Z,2.27
2022-09-01T19:59:50.186Z,2.17
2022-09-01T20:02:33.185Z,1.80
2022-09-01T20:05:19.820Z,2.30
2022-09-01T20:08:09.478Z,2.47
2022-09-01T20:11:05.759Z,2.50
2022-09-01T20:13:58.821Z,2.30
2022-09-01T20:16:44.760Z,2.40
2022-09-01T20:19:51.353Z,2.17
2022-09-01T20:22:40.757Z,2.65
2022-09-01T20:25:18.202Z,2.00
2022-09-01T20:28:13.546Z,2.20
2022-09-01T20:33:33.566Z,1.70
2022-09-01T20:36:32.555Z,1.80
2022-09-01T20:39:27.918Z,2.00
2022-09-01T20:42:05.221Z,1.50
2022-09-01T20:44:57.739Z,1.50
2022-09-01T20:47:33.597Z,1.65
2022-09-01T20:50:15.205Z,1.55
2022-09-01T20:53:36.038Z,1.60
2022-09-01T20:56:28.694Z,1.50
2022-09-01T20:59:10.103Z,1.77
2022-09-01T21:02:09.023Z,1.40
2022-09-01T21:05:05.804Z,1.60
2022-09-01T21:07:49.279Z,1.40
2022-09-01T21:10:41.658Z,1.52
2022-09-01T21:13:37.824Z,1.80
2022-09-01T21:16:40.326Z,1.60
2022-09-01T21:19:37.129Z,1.90
2022-09-01T21:22:15.014Z,1.90
2022-09-01T21:24:48.627Z,1.77
2022-09-01T21:27:27.742Z,1.35
2022-09-01T21:30:05.132Z,1.90
2022-09-01T21:32:39.962Z,1.65
2022-09-01T21:37:48.155Z,2.25
2022-09-01T21:40:24.115Z,2.15
2022-09-01T21:43:03.630Z,1.67
2022-09-01T21:45:38.679Z,1.65
2022-09-01T21:48:12.458Z,1.70
2022-09-01T21:50:47.077Z,1.45
2022-09-01T21:53:20.691Z,2.00
2022-09-01T21:58:26.170Z,1.77
2022-09-01T22:00:59.012Z,1.62
2022-09-01T22:03:32.171Z,1.52
2022-09-01T22:06:06.192Z,1.70
2022-09-01T22:11:13.686Z,1.60
2022-09-01T22:13:48.696Z,1.40
2022-09-01T22:16:23.251Z,1.80
2022-09-01T22:18:56.206Z,1.92
2022-09-01T22:21:31.112Z,1.70
2022-09-01T22:26:36.627Z,1.50
2022-09-01T22:29:10.017Z,1.80
2022-09-01T22:31:43.186Z,1.42
2022-09-01T22:34:16.390Z,1.90
2022-09-01T22:36:50.909Z,1.92
2022-09-01T22:39:25.624Z,2.08
2022-09-01T22:41:58.466Z,1.85
2022-09-01T22:44:31.969Z,1.80
2022-09-01T22:47:05.499Z,2.20
2022-09-01T22:49:38.534Z,1.77
2022-09-01T22:52:11.682Z,1.57
2022-09-01T22:54:46.456Z,1.77
2022-09-01T22:57:20.501Z,1.65
2022-09-01T22:59:53.402Z,1.60
2022-09-01T23:02:26.644Z,1.87
2022-09-01T23:04:59.547Z,1.98
2022-09-01T23:07:32.713Z,2.45
2022-09-01T23:10:09.041Z,1.70
2022-09-01T23:12:42.837Z,1.85
2022-09-01T23:15:16.554Z,1.70
2022-09-01T23:17:49.853Z,1.35
2022-09-01T23:20:22.956Z,1.57
2022-09-01T23:22:55.956Z,1.30
2022-09-01T23:25:29.096Z,1.57
2022-09-01T23:28:02.243Z,1.70
2022-09-01T23:30:36.064Z,1.65
2022-09-01T23:33:08.960Z,1.62
2022-09-01T23:35:47.939Z,1.52
2022-09-01T23:38:23.492Z,1.75
2022-09-01T23:40:58.275Z,2.08
2022-09-01T23:43:31.104Z,2.15
2022-09-01T23:46:05.433Z,2.60
2022-09-01T23:48:38.562Z,1.70
2022-09-01T23:51:12.803Z,1.47
2022-09-01T23:53:46.686Z,1.85
2022-09-01T23:56:23.916Z,1.65
2022-09-01T23:58:57.115Z,1.70
